Time;durP1;ratioP1;P1;durP2;ratioP2;P2;SDS_P1;SDS_P2;PMS_P1;PMS_P2;Temp;Humidity;BMP_temperature;BMP_pressure;BME280_temperature;BME280_humidity;BME280_pressure;Samples;Min_cycle;Max_cycle;Signal;HPM_P1;HPM_P2
2022/01/03 00:01:10;;;;;;;1.97;1.97;;;;;;;4.34;98.29;92726.28;4978473;28;20479;-75
2022/01/03 00:03:38;;;;;;;2.10;2.00;;;;;;;4.36;97.60;92728.78;4978527;28;20579;-75
2022/01/03 00:06:05;;;;;;;3.03;2.80;;;;;;;4.28;98.20;92723.91;4978188;28;20615;-75
2022/01/03 00:08:32;;;;;;;1.87;1.77;;;;;;;4.17;98.65;92729.09;4978630;28;20242;-75
2022/01/03 00:11:00;;;;;;;1.73;1.67;;;;;;;4.05;99.79;92721.81;4978284;28;20313;-75
2022/01/03 00:13:29;;;;;;;3.87;3.63;;;;;;;3.81;100.00;92714.72;4978561;28;20579;-74
2022/01/03 00:15:56;;;;;;;4.53;3.70;;;;;;;3.85;100.00;92712.97;4978102;28;20192;-75
2022/01/03 00:18:24;;;;;;;4.80;4.37;;;;;;;4.00;99.46;92706.03;4977593;28;20553;-75
2022/01/03 00:20:58;;;;;;;5.17;3.57;;;;;;;4.16;98.12;92712.47;4977996;28;20575;-74
2022/01/03 00:23:27;;;;;;;1.90;1.83;;;;;;;4.09;98.37;92692.59;4977782;28;20550;-75
2022/01/03 00:25:59;;;;;;;1.67;1.57;;;;;;;4.11;98.92;92694.19;4978322;28;20608;-75
2022/01/03 00:28:34;;;;;;;1.13;1.13;;;;;;;4.13;98.20;92687.50;4978174;28;20274;-75
2022/01/03 00:31:04;;;;;;;1.30;1.30;;;;;;;4.20;98.86;92690.72;4977925;28;20568;-74
2022/01/03 00:33:31;;;;;;;1.47;1.47;;;;;;;4.11;98.93;92676.69;4976928;28;20471;-75
2022/01/03 00:36:00;;;;;;;1.17;1.17;;;;;;;4.17;98.36;92675.75;4977435;28;20230;-74
2022/01/03 00:38:29;;;;;;;2.10;2.00;;;;;;;4.19;98.10;92666.56;4979105;28;20218;-75
2022/01/03 00:40:59;;;;;;;2.07;1.97;;;;;;;4.20;97.66;92669.88;4977742;28;20191;-75
2022/01/03 00:43:28;;;;;;;2.00;2.00;;;;;;;4.08;97.84;92656.75;4977230;28;20482;-75
2022/01/03 00:45:57;;;;;;;6.93;6.27;;;;;;;4.09;97.65;92657.59;4977075;28;20519;-75
2022/01/03 00:48:25;;;;;;;4.77;4.40;;;;;;;4.14;97.15;92665.81;4977108;28;20515;-74
2022/01/03 00:50:53;;;;;;;12.63;9.53;;;;;;;4.04;96.04;92669.34;4977095;28;20463;-75
2022/01/03 00:53:20;;;;;;;15.97;9.63;;;;;;;3.99;96.49;92654.44;4977393;28;20576;-75
2022/01/03 00:56:01;;;;;;;12.60;9.03;;;;;;;4.01;96.41;92651.88;4987969;28;20561;-75
2022/01/03 00:58:36;;;;;;;9.23;7.73;;;;;;;3.90;96.99;92646.25;4976880;28;20484;-75
2022/01/03 01:01:05;;;;;;;16.10;9.73;;;;;;;3.85;96.40;92656.34;4977287;28;20616;-75
2022/01/03 01:03:36;;;;;;;8.60;8.00;;;;;;;3.75;97.53;92643.19;4977011;28;20506;-75
2022/01/03 01:06:06;;;;;;;13.73;9.30;;;;;;;3.61;98.35;92651.72;4977287;28;20534;-75
2022/01/03 01:08:35;;;;;;;16.90;7.53;;;;;;;3.57;98.86;92645.97;4977008;28;20568;-75
2022/01/03 01:11:05;;;;;;;11.63;7.03;;;;;;;3.56;99.24;92643.50;4977219;28;20476;-75
2022/01/03 01:13:35;;;;;;;17.00;8.23;;;;;;;3.51;100.00;92638.56;4977266;28;20199;-75
2022/01/03 01:16:06;;;;;;;14.30;10.30;;;;;;;3.42;100.00;92637.91;4976782;28;20207;-75
2022/01/03 01:18:36;;;;;;;15.03;8.27;;;;;;;3.15;100.00;92627.50;4989244;28;20524;-75
2022/01/03 01:21:05;;;;;;;11.33;10.00;;;;;;;3.10;100.00;92626.72;4989237;28;20592;-74
2022/01/03 01:23:33;;;;;;;11.80;7.90;;;;;;;3.02;100.00;92622.69;4976085;28;20495;-76
2022/01/03 01:28:46;;;;;;;28.07;10.67;;;;;;;3.13;100.00;92598.41;4976382;28;20536;-75
2022/01/03 01:31:17;;;;;;;15.73;9.53;;;;;;;3.18;100.00;92606.66;4977714;28;20576;-75
2022/01/03 01:33:46;;;;;;;14.60;10.67;;;;;;;3.21;100.00;92604.91;4976745;28;20643;-75
2022/01/03 01:36:15;;;;;;;13.23;10.63;;;;;;;3.28;100.00;92593.16;4976478;28;20461;-75
2022/01/03 01:38:48;;;;;;;10.67;8.50;;;;;;;3.26;100.00;92590.72;4976774;28;20230;-75
2022/01/03 01:41:19;;;;;;;8.57;7.23;;;;;;;3.22;100.00;92584.09;4976266;28;20560;-75
2022/01/03 01:43:49;;;;;;;10.47;8.93;;;;;;;3.29;100.00;92588.16;4976747;28;20462;-75
2022/01/03 01:46:19;;;;;;;11.30;9.83;;;;;;;3.28;100.00;92576.53;4976352;28;20501;-75
2022/01/03 01:48:50;;;;;;;7.63;6.83;;;;;;;3.27;100.00;92587.34;4977391;28;20490;-75
2022/01/03 01:51:19;;;;;;;6.67;4.77;;;;;;;3.30;100.00;92584.00;4976330;28;20203;-75
2022/01/03 01:53:49;;;;;;;6.70;6.10;;;;;;;3.29;100.00;92589.84;4976049;28;20199;-75
2022/01/03 01:56:19;;;;;;;4.30;4.20;;;;;;;3.10;100.00;92583.50;4977398;28;20465;-75
2022/01/03 01:59:16;;;;;;;2.63;2.53;;;;;;;3.26;100.00;92577.41;4976936;28;20507;-75
2022/01/03 02:01:51;;;;;;;2.07;2.07;;;;;;;3.29;100.00;92570.69;4976238;28;20480;-75
2022/01/03 02:04:31;;;;;;;2.17;2.07;;;;;;;3.30;100.00;92581.50;4975381;28;20564;-75
2022/01/03 02:07:12;;;;;;;2.23;1.77;;;;;;;3.49;100.00;92582.03;4977104;28;20497;-75
2022/01/03 02:09:50;;;;;;;2.30;2.20;;;;;;;3.48;99.68;92587.88;4975998;28;20515;-75
2022/01/03 02:12:20;;;;;;;1.23;1.13;;;;;;;3.40;99.74;92560.53;4977298;28;20492;-75
2022/01/03 02:14:53;;;;;;;2.40;1.60;;;;;;;3.38;100.00;92566.41;4976958;28;20611;-75
2022/01/03 02:17:20;;;;;;;1.73;1.70;;;;;;;3.06;100.00;92535.28;4976679;28;20187;-75
2022/01/03 02:20:04;;;;;;;3.47;2.00;;;;;;;3.15;100.00;92547.63;4976383;28;20572;-75
2022/01/03 02:22:31;;;;;;;1.20;1.20;;;;;;;3.39;100.00;92550.56;4975936;28;20568;-75
2022/01/03 02:24:59;;;;;;;1.13;1.13;;;;;;;3.52;99.83;92554.50;4976228;28;20583;-75
2022/01/03 02:27:27;;;;;;;3.13;1.30;;;;;;;3.53;99.22;92548.66;4977094;28;20534;-75
2022/01/03 02:29:54;;;;;;;3.90;3.00;;;;;;;3.52;98.48;92537.00;4975700;28;20191;-75
2022/01/03 02:32:21;;;;;;;2.93;1.30;;;;;;;3.55;99.13;92539.47;4975723;28;20533;-75
2022/01/03 02:34:48;;;;;;;5.93;3.17;;;;;;;3.46;98.97;92527.13;4975597;28;20222;-75
2022/01/03 02:37:17;;;;;;;2.93;2.83;;;;;;;3.50;98.60;92542.03;4975791;28;20608;-75
2022/01/03 02:39:45;;;;;;;4.53;4.33;;;;;;;3.45;98.52;92532.97;4976360;28;20478;-75
2022/01/03 02:42:12;;;;;;;22.67;11.27;;;;;;;3.41;98.74;92532.22;4976230;28;20242;-75
2022/01/03 02:44:43;;;;;;;7.67;7.27;;;;;;;3.42;96.63;92543.03;4975922;28;20233;-75
2022/01/03 02:47:10;;;;;;;6.67;6.27;;;;;;;3.21;97.54;92532.53;4979517;28;20223;-75
2022/01/03 02:49:37;;;;;;;9.03;6.53;;;;;;;3.24;97.58;92530.00;4979867;28;20610;-75
2022/01/03 02:52:05;;;;;;;6.70;6.13;;;;;;;2.95;99.38;92512.19;4979798;28;20552;-75
2022/01/03 02:54:33;;;;;;;6.40;6.10;;;;;;;3.17;98.44;92525.97;4979905;28;20207;-75
2022/01/03 02:57:01;;;;;;;8.50;6.43;;;;;;;3.28;97.48;92533.25;4979288;28;20192;-75
2022/01/03 02:59:28;;;;;;;9.67;6.77;;;;;;;3.24;96.63;92527.50;4987112;28;20605;-75
2022/01/03 03:01:56;;;;;;;8.50;6.47;;;;;;;3.19;96.95;92525.94;4982162;28;20564;-75
2022/01/03 03:04:23;;;;;;;10.67;7.93;;;;;;;3.05;96.41;92538.63;4979536;28;20569;-75
2022/01/03 03:06:50;;;;;;;11.50;8.80;;;;;;;3.01;97.01;92536.22;4979044;28;20615;-75
2022/01/03 03:09:20;;;;;;;9.23;8.13;;;;;;;3.04;97.18;92532.03;4979192;28;20474;-75
2022/01/03 03:11:48;;;;;;;8.23;7.27;;;;;;;2.96;99.05;92528.81;4978960;28;20199;-75
2022/01/03 03:14:16;;;;;;;8.70;6.57;;;;;;;2.97;98.28;92539.63;4979223;28;20533;-75
2022/01/03 03:16:44;;;;;;;9.67;7.10;;;;;;;2.75;99.47;92529.16;4978185;28;20207;-75
2022/01/03 03:19:12;;;;;;;8.23;7.50;;;;;;;2.50;100.00;92529.50;4979109;28;20570;-75
2022/01/03 03:21:39;;;;;;;5.90;5.53;;;;;;;2.29;100.00;92536.44;4979453;28;20580;-75
2022/01/03 03:24:07;;;;;;;5.50;5.27;;;;;;;2.14;100.00;92534.16;4978690;28;20273;-75
2022/01/03 03:26:34;;;;;;;5.57;5.03;;;;;;;2.02;100.00;92540.94;4978853;28;20283;-75
2022/01/03 03:29:02;;;;;;;7.37;6.80;;;;;;;2.14;100.00;92544.13;4978595;28;20555;-75
2022/01/03 03:31:30;;;;;;;7.17;6.17;;;;;;;2.28;100.00;92528.13;4978793;28;20529;-75
2022/01/03 03:33:57;;;;;;;6.03;5.10;;;;;;;2.23;100.00;92529.88;4978860;28;20559;-75
2022/01/03 03:36:24;;;;;;;5.03;4.57;;;;;;;2.40;100.00;92530.47;4978304;28;20579;-75
2022/01/03 03:38:51;;;;;;;1.93;1.93;;;;;;;2.46;100.00;92532.88;4989708;28;20199;-75
2022/01/03 03:41:19;;;;;;;2.50;2.33;;;;;;;2.65;100.00;92528.44;4978218;28;20538;-75
2022/01/03 03:43:46;;;;;;;1.90;1.90;;;;;;;2.77;100.00;92533.25;4978210;28;20494;-75
2022/01/03 03:46:15;;;;;;;2.67;2.57;;;;;;;2.92;100.00;92534.69;4978272;28;20630;-75
2022/01/03 03:48:42;;;;;;;3.20;2.90;;;;;;;3.02;100.00;92532.88;4978421;28;20505;-75
2022/01/03 03:51:09;;;;;;;4.13;3.87;;;;;;;2.99;100.00;92522.94;4979052;28;20595;-75
2022/01/03 03:53:37;;;;;;;3.63;2.67;;;;;;;2.95;100.00;92507.19;4978281;28;20196;-75
2022/01/03 03:56:04;;;;;;;2.43;2.33;;;;;;;3.15;100.00;92515.19;4978241;28;20583;-75
2022/01/03 03:58:32;;;;;;;2.10;2.00;;;;;;;3.13;100.00;92511.91;4979254;28;20497;-75
2022/01/03 04:00:59;;;;;;;2.20;2.10;;;;;;;3.10;100.00;92498.66;4977931;28;20583;-75
2022/01/03 04:03:28;;;;;;;3.13;1.50;;;;;;;3.18;100.00;92507.66;4978308;28;20592;-75
2022/01/03 04:05:55;;;;;;;2.80;2.70;;;;;;;3.23;100.00;92503.41;4978309;28;20575;-75
2022/01/03 04:08:22;;;;;;;2.10;1.93;;;;;;;3.32;100.00;92508.22;4978014;28;20603;-75
2022/01/03 04:10:49;;;;;;;1.23;1.23;;;;;;;3.36;100.00;92510.69;4977869;28;20211;-75
2022/01/03 04:13:17;;;;;;;6.03;5.50;;;;;;;3.30;100.00;92519.09;4978029;28;20473;-74
2022/01/03 04:15:44;;;;;;;6.03;5.83;;;;;;;3.19;96.48;92520.94;4978449;28;20665;-75
2022/01/03 04:18:11;;;;;;;6.13;5.60;;;;;;;3.05;96.19;92517.84;4977773;28;20560;-75
2022/01/03 04:20:40;;;;;;;12.47;8.73;;;;;;;3.01;95.87;92507.09;4978003;28;20646;-75
2022/01/03 04:23:07;;;;;;;6.40;5.93;;;;;;;2.86;96.39;92494.88;4977338;28;20222;-75
2022/01/03 04:25:34;;;;;;;9.10;7.60;;;;;;;2.73;96.56;92499.22;4977674;28;20560;-75
2022/01/03 04:28:01;;;;;;;9.83;8.57;;;;;;;2.60;97.13;92502.75;4978047;28;20603;-75
2022/01/03 04:30:29;;;;;;;8.43;6.80;;;;;;;2.44;97.89;92499.66;4977755;28;20574;-75
2022/01/03 04:32:56;;;;;;;7.93;7.13;;;;;;;2.46;98.74;92504.63;4977421;28;20486;-75
2022/01/03 04:35:24;;;;;;;6.77;6.27;;;;;;;2.39;98.98;92493.09;4977148;28;20596;-75
2022/01/03 04:37:52;;;;;;;7.43;6.87;;;;;;;2.53;98.36;92506.19;4978341;28;20564;-75
2022/01/03 04:40:20;;;;;;;9.17;8.63;;;;;;;2.48;98.13;92516.22;4977149;28;20509;-75
2022/01/03 04:42:47;;;;;;;7.47;6.97;;;;;;;2.42;98.44;92516.28;4977387;28;20464;-75
2022/01/03 04:45:14;;;;;;;8.23;7.70;;;;;;;2.45;99.34;92507.97;4978260;28;20623;-75
2022/01/03 04:47:41;;;;;;;7.17;6.50;;;;;;;2.46;99.58;92519.59;4976909;28;20504;-75
2022/01/03 04:50:09;;;;;;;9.20;8.40;;;;;;;2.52;98.81;92517.00;4976717;28;20210;-75
2022/01/03 04:52:36;;;;;;;6.83;6.23;;;;;;;2.46;99.27;92512.09;4977136;28;20523;-75
2022/01/03 04:55:05;;;;;;;9.67;7.33;;;;;;;2.36;100.00;92508.09;4977249;28;20590;-75
2022/01/03 04:57:32;;;;;;;9.50;8.60;;;;;;;2.21;100.00;92490.84;4976574;28;20556;-75
2022/01/03 05:00:00;;;;;;;8.17;7.40;;;;;;;2.25;100.00;92510.75;4977026;28;20602;-75
2022/01/03 05:02:27;;;;;;;10.60;7.60;;;;;;;2.25;100.00;92510.75;4988061;28;20458;-75
2022/01/03 05:04:54;;;;;;;14.93;9.87;;;;;;;2.41;100.00;92508.84;4976461;28;20207;-75
2022/01/03 05:07:21;;;;;;;12.23;9.50;;;;;;;2.57;99.11;92517.75;4976279;28;20559;-75
2022/01/03 05:09:48;;;;;;;14.27;12.83;;;;;;;2.53;98.72;92517.84;4976761;28;20192;-75
2022/01/03 05:12:17;;;;;;;13.10;11.87;;;;;;;2.49;99.12;92517.03;4977259;28;20273;-75
2022/01/03 05:14:45;;;;;;;12.50;10.93;;;;;;;2.46;99.30;92520.41;4978131;28;20591;-75
2022/01/03 05:17:12;;;;;;;22.03;12.90;;;;;;;2.36;100.00;92515.59;4976699;28;20225;-75
2022/01/03 05:19:39;;;;;;;13.60;9.87;;;;;;;2.41;100.00;92523.81;4976308;28;20495;-75
2022/01/03 05:22:07;;;;;;;12.47;9.43;;;;;;;2.18;100.00;92516.66;4976797;28;20211;-74
2022/01/03 05:24:34;;;;;;;17.20;14.27;;;;;;;2.14;100.00;92507.53;4976772;28;20493;-75
2022/01/03 05:27:01;;;;;;;15.90;13.13;;;;;;;2.24;100.00;92514.06;4977239;28;20518;-74
2022/01/03 05:29:30;;;;;;;14.73;13.33;;;;;;;2.17;100.00;92504.19;4976414;28;20567;-75
2022/01/03 05:31:57;;;;;;;23.07;15.17;;;;;;;2.21;100.00;92516.59;4976162;28;20576;-75
2022/01/03 05:34:25;;;;;;;25.20;15.27;;;;;;;2.46;100.00;92542.84;4977689;28;20481;-75
2022/01/03 05:36:52;;;;;;;16.20;14.47;;;;;;;2.53;100.00;92533.63;4977138;28;20325;-74
2022/01/03 05:39:19;;;;;;;31.10;13.20;;;;;;;2.25;100.00;92529.84;4976191;28;20464;-74
2022/01/03 05:41:46;;;;;;;22.23;15.77;;;;;;;2.34;100.00;92534.72;4976613;28;20590;-75
2022/01/03 05:44:13;;;;;;;16.67;13.97;;;;;;;2.38;100.00;92509.72;4976811;28;20571;-74
2022/01/03 05:46:42;;;;;;;15.03;9.87;;;;;;;2.29;100.00;92504.88;4976275;28;20500;-74
2022/01/03 05:49:11;;;;;;;22.17;11.83;;;;;;;2.41;100.00;92489.75;4976688;28;20603;-73
2022/01/03 05:51:39;;;;;;;12.47;11.20;;;;;;;2.57;99.85;92499.50;4976565;28;20595;-74
2022/01/03 05:54:06;;;;;;;12.07;11.03;;;;;;;2.61;99.42;92503.56;4975824;28;20225;-74
2022/01/03 05:56:33;;;;;;;11.17;10.07;;;;;;;2.71;99.96;92507.56;4976627;28;20507;-73
2022/01/03 05:59:00;;;;;;;18.27;15.50;;;;;;;2.73;99.81;92514.19;4983996;28;20606;-72
2022/01/03 06:01:28;;;;;;;27.67;18.60;;;;;;;2.72;99.86;92517.53;4980012;28;20603;-74
2022/01/03 06:04:10;;;;;;;30.83;17.53;;;;;;;2.59;100.00;92523.56;4977991;28;20568;-75
2022/01/03 06:06:54;;;;;;;22.30;17.33;;;;;;;2.67;100.00;92520.94;4978184;28;20535;-75
2022/01/03 06:09:24;;;;;;;31.23;19.47;;;;;;;2.21;100.00;92501.66;4979042;28;20663;-74
2022/01/03 06:11:52;;;;;;;30.03;13.27;;;;;;;2.30;100.00;92528.13;4982164;28;20583;-73
2022/01/03 06:14:20;;;;;;;13.93;12.53;;;;;;;2.41;100.00;92512.19;4980521;28;20594;-74
2022/01/03 06:16:48;;;;;;;20.17;12.23;;;;;;;2.46;100.00;92502.13;4978404;28;20562;-74
2022/01/03 06:19:17;;;;;;;16.00;13.57;;;;;;;2.59;100.00;92496.13;4979798;28;20442;-74
2022/01/03 06:21:45;;;;;;;20.20;15.17;;;;;;;2.63;100.00;92494.41;4982477;28;20288;-74
2022/01/03 06:24:14;;;;;;;17.13;12.43;;;;;;;2.65;100.00;92498.50;4980086;28;20233;-75
2022/01/03 06:26:43;;;;;;;21.23;16.13;;;;;;;2.65;100.00;92497.72;4993360;28;20596;-76
2022/01/03 06:29:12;;;;;;;65.30;27.33;;;;;;;2.52;100.00;92488.75;4984225;28;20595;-75
2022/01/03 06:31:40;;;;;;;27.97;18.47;;;;;;;2.56;100.00;92507.81;4982874;28;20599;-76
2022/01/03 06:34:07;;;;;;;41.50;25.30;;;;;;;2.45;100.00;92511.28;4983244;28;20580;-76
2022/01/03 06:36:36;;;;;;;37.57;25.90;;;;;;;2.52;100.00;92521.16;4981850;28;20456;-75
2022/01/03 06:39:04;;;;;;;50.00;30.10;;;;;;;2.49;100.00;92532.81;4981432;28;20571;-75
2022/01/03 06:41:32;;;;;;;43.33;26.00;;;;;;;2.41;100.00;92534.63;4981824;28;20607;-74
2022/01/03 06:43:59;;;;;;;51.37;24.53;;;;;;;2.18;100.00;92530.78;4983110;28;20578;-74
2022/01/03 06:46:26;;;;;;;49.20;27.77;;;;;;;2.00;100.00;92529.31;4981302;28;20499;-75
2022/01/03 06:48:54;;;;;;;32.87;22.00;;;;;;;2.11;100.00;92541.66;4986237;28;20501;-76
2022/01/03 06:51:21;;;;;;;35.40;21.30;;;;;;;1.87;100.00;92506.22;4989624;28;20590;-74
2022/01/03 06:53:50;;;;;;;44.53;25.03;;;;;;;1.80;100.00;92532.06;4980863;28;20587;-75
2022/01/03 06:56:17;;;;;;;47.13;29.23;;;;;;;1.97;100.00;92536.84;4979988;28;20568;-75
2022/01/03 06:58:46;;;;;;;48.33;29.30;;;;;;;1.86;100.00;92518.72;4981095;28;20481;-74
2022/01/03 07:01:13;;;;;;;38.47;23.90;;;;;;;1.79;100.00;92512.16;4978790;28;20260;-75
2022/01/03 07:03:41;;;;;;;43.53;26.97;;;;;;;2.03;100.00;92512.66;4979686;28;20598;-75
2022/01/03 07:06:08;;;;;;;52.40;34.43;;;;;;;2.17;100.00;92505.03;4981404;28;20489;-74
2022/01/03 07:08:35;;;;;;;47.07;27.50;;;;;;;2.20;100.00;92502.47;4983559;28;20248;-74
2022/01/03 07:11:04;;;;;;;38.47;27.07;;;;;;;2.35;100.00;92497.31;4981769;28;20576;-74
2022/01/03 07:13:39;;;;;;;50.37;31.03;;;;;;;2.53;100.00;92492.91;4986024;28;20607;-72
2022/01/03 07:18:58;;;;;;;53.03;30.47;;;;;;;2.63;100.00;92509.38;4983682;28;20579;-73
2022/01/03 07:21:27;;;;;;;64.80;33.93;;;;;;;2.65;100.00;92515.16;4985128;28;20572;-72
2022/01/03 07:23:54;;;;;;;51.20;33.60;;;;;;;2.63;100.00;92514.34;4987344;28;20483;-73
2022/01/03 07:26:25;;;;;;;73.90;39.87;;;;;;;2.73;100.00;92515.84;4982540;28;20595;-73
2022/01/03 07:28:53;;;;;;;78.77;38.00;;;;;;;2.67;100.00;92510.97;4985509;28;20222;-74
2022/01/03 07:31:20;;;;;;;53.77;32.00;;;;;;;2.67;100.00;92503.47;4984903;28;20475;-73
2022/01/03 07:33:48;;;;;;;60.40;33.67;;;;;;;2.80;100.00;92519.91;4980907;28;20575;-73
2022/01/03 07:36:15;;;;;;;43.37;28.10;;;;;;;2.86;100.00;92514.84;4982376;28;20594;-73
2022/01/03 07:38:46;;;;;;;51.07;32.67;;;;;;;2.87;100.00;92509.81;4983520;28;20560;-73
2022/01/03 07:41:14;;;;;;;54.43;29.20;;;;;;;2.86;100.00;92528.13;4984870;28;20551;-73
2022/01/03 07:43:43;;;;;;;46.47;31.07;;;;;;;2.79;100.00;92521.59;4977922;28;20503;-73
2022/01/03 07:46:11;;;;;;;32.27;23.33;;;;;;;2.72;100.00;92524.19;4980267;28;20673;-73
2022/01/03 07:48:39;;;;;;;23.40;19.50;;;;;;;2.76;100.00;92531.59;4982398;28;20642;-73
2022/01/03 07:51:06;;;;;;;32.67;20.13;;;;;;;2.75;100.00;92511.69;4980731;28;20583;-73
2022/01/03 07:53:33;;;;;;;29.50;19.70;;;;;;;2.66;100.00;92511.81;4984738;28;20580;-73
2022/01/03 07:56:04;;;;;;;29.20;23.37;;;;;;;2.54;100.00;92495.34;4987134;28;20447;-74
2022/01/03 07:58:34;;;;;;;33.13;25.37;;;;;;;2.72;100.00;92515.03;4989161;28;20496;-75
2022/01/03 08:01:03;;;;;;;48.97;25.53;;;;;;;2.83;100.00;92519.84;4991021;28;20567;-75
2022/01/03 08:03:33;;;;;;;52.70;34.87;;;;;;;2.58;100.00;92454.59;4987544;28;20548;-74
2022/01/03 08:06:02;;;;;;;64.53;33.43;;;;;;;3.00;100.00;92497.13;4987342;28;20557;-77
2022/01/03 08:08:29;;;;;;;66.87;35.37;;;;;;;3.15;100.00;92505.22;4990640;28;20488;-74
2022/01/03 08:10:57;;;;;;;85.67;38.97;;;;;;;3.23;100.00;92493.41;4990717;28;20511;-74
2022/01/03 08:13:24;;;;;;;100.17;50.17;;;;;;;3.30;100.00;92494.13;4994626;28;20475;-76
2022/01/03 08:15:51;;;;;;;97.10;48.60;;;;;;;3.41;100.00;92501.44;4991705;28;20600;-74
2022/01/03 08:18:20;;;;;;;113.53;53.63;;;;;;;3.58;100.00;92504.44;4984044;28;20472;-74
2022/01/03 08:20:47;;;;;;;132.60;62.07;;;;;;;3.63;100.00;92475.19;4981208;28;20242;-74
2022/01/03 08:23:14;;;;;;;129.83;59.20;;;;;;;3.92;100.00;92495.47;4981051;28;20560;-72
2022/01/03 08:25:41;;;;;;;133.70;56.47;;;;;;;4.06;100.00;92495.97;4986338;28;20564;-73
2022/01/03 08:28:10;;;;;;;93.23;42.50;;;;;;;4.15;100.00;92498.31;4977893;28;20470;-72
2022/01/03 08:30:37;;;;;;;69.67;36.27;;;;;;;4.15;100.00;92487.50;4981049;28;20555;-72
2022/01/03 08:33:05;;;;;;;55.47;28.23;;;;;;;4.13;100.00;92502.50;4990936;28;20563;-73
2022/01/03 08:35:34;;;;;;;28.77;19.93;;;;;;;3.96;100.00;92492.03;4978921;28;20548;-73
2022/01/03 08:38:04;;;;;;;24.83;18.90;;;;;;;3.91;100.00;92480.47;4982493;28;20642;-73
2022/01/03 08:40:32;;;;;;;37.33;25.07;;;;;;;3.91;100.00;92471.31;4979587;28;20471;-73
2022/01/03 08:43:00;;;;;;;38.67;25.47;;;;;;;3.92;100.00;92472.97;4985313;28;20225;-75
2022/01/03 08:45:27;;;;;;;29.17;20.83;;;;;;;3.92;100.00;92445.47;4987732;28;20506;-75
2022/01/03 08:47:55;;;;;;;31.57;22.40;;;;;;;3.83;100.00;92442.34;4983650;28;20199;-74
2022/01/03 08:50:22;;;;;;;53.20;29.90;;;;;;;4.06;100.00;92458.50;4989510;28;20515;-74
2022/01/03 08:52:51;;;;;;;43.00;26.40;;;;;;;4.11;100.00;92459.22;4988441;28;20585;-74
2022/01/03 08:55:20;;;;;;;34.63;20.83;;;;;;;4.21;100.00;92454.88;4988074;28;20211;-75
2022/01/03 08:57:51;;;;;;;31.30;18.00;;;;;;;4.41;100.00;92461.91;4987009;28;20207;-74
2022/01/03 09:00:19;;;;;;;47.33;21.50;;;;;;;4.65;100.00;92473.06;4981085;28;20563;-76
2022/01/03 09:02:46;;;;;;;44.70;27.47;;;;;;;4.72;100.00;92482.06;4987573;28;20558;-73
2022/01/03 09:05:14;;;;;;;25.40;19.27;;;;;;;4.73;100.00;92472.00;4977805;28;20559;-73
2022/01/03 09:07:41;;;;;;;26.50;17.53;;;;;;;4.79;100.00;92461.84;4985110;28;20211;-73
2022/01/03 09:10:11;;;;;;;27.33;17.43;;;;;;;4.91;100.00;92463.25;4981137;28;20528;-74
2022/01/03 09:12:39;;;;;;;32.93;16.07;;;;;;;4.91;100.00;92463.25;4978947;28;20437;-73
2022/01/03 09:15:07;;;;;;;18.47;12.67;;;;;;;5.03;100.00;92460.44;4978749;28;20294;-74
2022/01/03 09:17:34;;;;;;;14.80;12.27;;;;;;;4.94;100.00;92461.50;4978450;28;20484;-74
2022/01/03 09:20:02;;;;;;;13.50;10.43;;;;;;;5.09;100.00;92449.47;4981250;28;20602;-74
2022/01/03 09:22:34;;;;;;;11.53;8.73;;;;;;;5.22;100.00;92446.63;4979319;28;20582;-74
2022/01/03 09:30:34;;;;;;;24.43;14.80;;;;;;;5.77;99.79;92428.44;4983811;28;20638;-74
2022/01/03 09:33:01;;;;;;;30.40;15.90;;;;;;;5.98;98.83;92431.22;4978813;28;20478;-73
2022/01/03 09:35:28;;;;;;;22.50;14.17;;;;;;;6.14;97.40;92423.22;4983770;28;20485;-73
2022/01/03 09:37:56;;;;;;;27.20;14.73;;;;;;;6.35;96.55;92441.03;4987772;28;20501;-74
2022/01/03 09:40:23;;;;;;;22.63;13.70;;;;;;;6.57;96.54;92424.44;4978174;28;20473;-74
2022/01/03 09:42:57;;;;;;;12.03;9.27;;;;;;;6.78;96.10;92411.22;4977196;28;20587;-73
2022/01/03 09:45:27;;;;;;;17.30;8.10;;;;;;;7.11;93.74;92411.00;4978135;28;20609;-74
2022/01/03 09:47:56;;;;;;;20.23;10.80;;;;;;;7.21;92.50;92404.81;4984492;28;20481;-74
2022/01/03 09:50:24;;;;;;;14.17;8.50;;;;;;;7.46;91.06;92419.00;4978741;28;20277;-75
2022/01/03 09:52:52;;;;;;;7.90;6.80;;;;;;;7.58;89.10;92416.94;4978647;28;20609;-74
2022/01/03 09:55:21;;;;;;;10.30;8.53;;;;;;;7.73;87.70;92417.22;4981066;28;20556;-73
2022/01/03 09:57:49;;;;;;;6.83;6.40;;;;;;;7.77;86.62;92406.19;4976429;28;20656;-74
2022/01/03 10:00:22;;;;;;;5.10;4.67;;;;;;;7.92;85.48;92412.34;4979580;28;20564;-74
2022/01/03 10:02:50;;;;;;;7.70;6.43;;;;;;;8.09;85.03;92400.00;4975480;28;20558;-74
2022/01/03 10:05:17;;;;;;;11.70;7.97;;;;;;;8.05;85.00;92392.63;4988079;28;20477;-73
2022/01/03 10:07:44;;;;;;;12.33;9.13;;;;;;;8.27;84.00;92388.44;4995730;28;20575;-74
2022/01/03 10:10:13;;;;;;;17.67;7.47;;;;;;;9.16;82.69;92381.56;4995099;28;20634;-74
2022/01/03 10:12:41;;;;;;;11.77;7.63;;;;;;;10.53;77.83;92370.50;4995064;28;20483;-74
2022/01/03 10:15:10;;;;;;;12.53;8.03;;;;;;;12.15;70.91;92405.47;4994156;28;21536;-74
2022/01/03 10:17:41;;;;;;;15.15;9.50;;;;;;;13.82;65.13;92398.72;4994250;28;20456;-76
2022/01/03 10:20:12;;;;;;;14.63;10.20;;;;;;;15.29;61.90;92417.63;4984142;28;20191;-74
2022/01/03 10:22:41;;;;;;;23.48;13.32;;;;;;;16.67;55.25;92440.78;4974200;28;20285;-76
2022/01/03 10:25:19;;;;;;;27.98;15.82;;;;;;;17.61;50.72;92454.53;4975711;28;20650;-73
2022/01/03 10:27:49;;;;;;;27.63;14.98;;;;;;;18.17;47.01;92460.63;4975371;28;20488;-74
2022/01/03 10:30:34;;;;;;;27.98;14.48;;;;;;;18.74;46.51;92438.47;4974784;28;20615;-74
2022/01/03 10:33:04;;;;;;;35.60;15.38;;;;;;;19.06;44.86;92429.09;4975126;28;20475;-74
2022/01/03 10:35:37;;;;;;;32.33;15.18;;;;;;;19.59;44.72;92419.78;4982451;28;20656;-73
2022/01/03 10:38:05;;;;;;;39.45;15.75;;;;;;;19.90;43.88;92399.31;4975299;28;20591;-74
2022/01/03 10:40:32;;;;;;;34.78;16.38;;;;;;;20.05;41.19;92426.31;4974913;28;20511;-73
2022/01/03 10:43:13;;;;;;;21.50;13.20;;;;;;;20.16;41.80;92416.78;4975066;28;20592;-74
2022/01/03 10:45:41;;;;;;;11.63;8.63;;;;;;;20.30;42.26;92405.38;4986756;28;20226;-72
2022/01/03 10:48:29;;;;;;;22.60;8.98;;;;;;;19.81;42.29;92388.09;4992287;28;20567;-74
2022/01/03 10:50:56;;;;;;;18.88;10.77;;;;;;;19.14;44.43;92374.72;4985851;28;20567;-73
2022/01/03 10:53:34;;;;;;;15.40;10.63;;;;;;;18.07;47.16;92336.94;4992934;28;20765;-73
2022/01/03 10:56:23;;;;;;;9.88;7.85;;;;;;;17.16;50.45;92314.81;4987020;28;20552;-72
2022/01/03 10:58:51;;;;;;;13.52;9.13;;;;;;;16.73;52.01;92311.97;4973454;28;20637;-73
2022/01/03 11:01:21;;;;;;;7.60;6.60;;;;;;;16.48;51.27;92303.47;4984180;28;20537;-74
2022/01/03 11:03:52;;;;;;;10.77;8.10;;;;;;;16.54;52.19;92310.69;4989386;28;20199;-73
2022/01/03 11:06:25;;;;;;;6.97;6.05;;;;;;;16.59;51.13;92302.75;4990755;28;20194;-74
2022/01/03 11:11:55;;;;;;;6.95;6.38;;;;;;;17.63;47.36;92322.38;4965363;28;20472;-74
2022/01/03 11:14:34;;;;;;;6.70;6.10;;;;;;;18.38;46.15;92314.13;4985045;28;20546;-74
2022/01/03 11:17:02;;;;;;;17.77;9.95;;;;;;;18.46;45.32;92322.03;4994434;28;20559;-74
2022/01/03 11:19:38;;;;;;;11.52;8.65;;;;;;;18.12;46.82;92293.13;4990243;28;20561;-74
2022/01/03 11:22:05;;;;;;;7.53;6.15;;;;;;;17.83;45.31;92297.91;4993082;28;20503;-75
2022/01/03 11:24:33;;;;;;;11.50;7.28;;;;;;;17.72;47.06;92274.91;4992777;28;20494;-75
2022/01/03 11:27:00;;;;;;;15.73;11.13;;;;;;;17.53;47.68;92267.75;4983002;28;20199;-75
2022/01/03 11:29:32;;;;;;;18.05;10.65;;;;;;;17.38;47.94;92253.59;4989521;28;20506;-75
2022/01/03 11:32:00;;;;;;;18.63;10.48;;;;;;;17.48;48.09;92248.59;4991772;28;20588;-74
2022/01/03 11:34:28;;;;;;;27.08;12.80;;;;;;;17.39;48.27;92243.25;4996052;28;20603;-75
2022/01/03 11:36:59;;;;;;;15.13;10.40;;;;;;;17.30;48.19;92238.81;4996303;28;20586;-74
2022/01/03 11:39:32;;;;;;;42.35;16.73;;;;;;;16.93;48.81;92225.41;4994197;28;20491;-75
2022/01/03 11:42:00;;;;;;;24.40;14.55;;;;;;;16.53;50.50;92221.53;4982656;28;20613;-74
2022/01/03 11:44:27;;;;;;;18.48;10.48;;;;;;;16.20;49.81;92219.66;4986418;28;20552;-74
2022/01/03 11:46:55;;;;;;;21.73;11.70;;;;;;;15.87;51.46;92179.50;4978464;28;20825;-74
2022/01/03 11:49:23;;;;;;;26.73;12.98;;;;;;;15.77;50.98;92209.88;4978291;28;20579;-73